Time;durP1;ratioP1;P1;durP2;ratioP2;P2;SDS_P1;SDS_P2;PMS_P1;PMS_P2;Temp;Humidity;BMP_temperature;BMP_pressure;BME280_temperature;BME280_humidity;BME280_pressure;Samples;Min_cycle;Max_cycle;Signal;HPM_P1;HPM_P2
2021/12/02 00:00:53;;;;;;;8.90;1.40;;;;;;;;;;2311801;58;21055;-77
2021/12/02 00:03:20;;;;;;;2.90;1.37;;;;;;;;;;2311680;58;21106;-75
2021/12/02 00:05:47;;;;;;;8.40;1.73;;;;;;;;;;2551595;54;21131;-77
2021/12/02 00:08:14;;;;;;;8.40;1.77;;;;;;;;;;2551221;54;21072;-77
2021/12/02 00:10:42;;;;;;;3.60;1.45;;;;;;;;;;2312030;58;21111;-77
2021/12/02 00:13:09;;;;;;;6.10;2.97;;;;;;;;;;2311784;58;21039;-76
2021/12/02 00:15:42;;;;;;;5.93;1.30;;;;;;;;;;2312156;58;21202;-77
2021/12/02 00:18:29;;;;;;;7.70;1.83;;;;;;;;;;2312042;58;21080;-77
2021/12/02 00:21:04;;;;;;;6.07;1.65;;;;;;;;;;2312026;58;21116;-77
2021/12/02 00:23:34;;;;;;;6.05;1.87;;;;;;;;;;2551608;53;21048;-77
2021/12/02 00:26:03;;;;;;;8.05;1.73;;;;;;;;;;2312398;58;21135;-76
2021/12/02 00:28:31;;;;;;;4.32;1.30;;;;;;;;;;2312123;58;21106;-77
2021/12/02 00:30:58;;;;;;;4.62;1.42;;;;;;;;;;2551386;54;21036;-76
2021/12/02 00:33:26;;;;;;;6.22;1.60;;;;;;;;;;2312073;58;21114;-74
2021/12/02 00:35:53;;;;;;;10.48;1.30;;;;;;;;;;2312068;58;21080;-77
2021/12/02 00:38:20;;;;;;;2.15;1.10;;;;;;;;;;2312316;58;21063;-77
2021/12/02 00:40:47;;;;;;;7.40;1.95;;;;;;;;;;2311496;58;21048;-77
2021/12/02 00:43:15;;;;;;;10.65;1.95;;;;;;;;;;2311483;58;21039;-77
2021/12/02 00:45:42;;;;;;;10.23;1.40;;;;;;;;;;2551569;54;21100;-76
2021/12/02 00:48:11;;;;;;;5.07;1.33;;;;;;;;;;2551567;54;21052;-76
2021/12/02 00:50:38;;;;;;;7.68;1.42;;;;;;;;;;2311969;58;21039;-76
2021/12/02 00:53:07;;;;;;;6.20;1.40;;;;;;;;;;2551371;54;21051;-76
2021/12/02 00:55:34;;;;;;;7.10;1.85;;;;;;;;;;2551712;54;21056;-76
2021/12/02 00:58:02;;;;;;;3.22;1.42;;;;;;;;;;2312131;58;21047;-76
2021/12/02 01:00:29;;;;;;;3.92;1.20;;;;;;;;;;2312108;58;21584;-76
2021/12/02 01:02:58;;;;;;;6.35;1.70;;;;;;;;;;2551670;54;21529;-76
2021/12/02 01:05:25;;;;;;;4.80;1.50;;;;;;;;;;2311848;58;21040;-76
2021/12/02 01:07:53;;;;;;;7.82;1.37;;;;;;;;;;2311943;58;21115;-76
2021/12/02 01:10:20;;;;;;;4.43;1.42;;;;;;;;;;2551392;54;21064;-75
2021/12/02 01:12:48;;;;;;;11.65;2.03;;;;;;;;;;2312071;58;21052;-76
2021/12/02 01:15:16;;;;;;;13.80;1.70;;;;;;;;;;2312041;58;21127;-76
2021/12/02 01:17:43;;;;;;;3.50;1.87;;;;;;;;;;2551614;54;21048;-76
2021/12/02 01:20:11;;;;;;;3.37;1.30;;;;;;;;;;2551172;54;21108;-76
2021/12/02 01:22:38;;;;;;;6.32;1.25;;;;;;;;;;2312109;58;21623;-76
2021/12/02 01:25:07;;;;;;;8.70;1.55;;;;;;;;;;2312088;58;21120;-76
2021/12/02 01:27:35;;;;;;;7.40;1.87;;;;;;;;;;2551837;54;21107;-76
2021/12/02 01:30:02;;;;;;;7.45;1.70;;;;;;;;;;2551513;54;21079;-75
2021/12/02 01:32:33;;;;;;;6.32;1.75;;;;;;;;;;2312318;58;21099;-75
2021/12/02 01:35:02;;;;;;;6.32;1.50;;;;;;;;;;2312310;58;21111;-75
2021/12/02 01:37:29;;;;;;;7.95;1.25;;;;;;;;;;2312191;58;21064;-76
2021/12/02 01:39:56;;;;;;;5.55;1.42;;;;;;;;;;2551202;54;21060;-75
2021/12/02 01:42:25;;;;;;;6.90;1.45;;;;;;;;;;2311761;58;21044;-76
2021/12/02 01:47:30;;;;;;;3.62;1.55;;;;;;;;;;2316351;57;28310;-76
2021/12/02 01:49:59;;;;;;;6.07;1.40;;;;;;;;;;2345947;57;21060;-76
2021/12/02 01:52:29;;;;;;;2.75;1.00;;;;;;;;;;2347735;57;21021;-76
2021/12/02 01:55:03;;;;;;;3.85;1.40;;;;;;;;;;2347500;57;21054;-76
2021/12/02 01:57:31;;;;;;;9.13;1.95;;;;;;;;;;2347464;57;21034;-76
2021/12/02 02:00:05;;;;;;;5.45;1.25;;;;;;;;;;2347082;57;21069;-76
2021/12/02 02:02:36;;;;;;;8.15;1.40;;;;;;;;;;2347676;57;21086;-76
2021/12/02 02:05:07;;;;;;;2.62;1.30;;;;;;;;;;2346493;57;21026;-76
2021/12/02 02:07:34;;;;;;;2.83;1.20;;;;;;;;;;2347166;57;21042;-76
2021/12/02 02:10:01;;;;;;;9.90;1.55;;;;;;;;;;2346923;57;21038;-76
2021/12/02 02:12:28;;;;;;;8.27;1.45;;;;;;;;;;2347582;57;21046;-76
2021/12/02 02:14:56;;;;;;;9.30;2.08;;;;;;;;;;2594841;53;21083;-76
2021/12/02 02:17:28;;;;;;;5.53;1.30;;;;;;;;;;2347707;57;21539;-76
2021/12/02 02:19:55;;;;;;;7.00;1.25;;;;;;;;;;2347367;57;21116;-76
2021/12/02 02:22:23;;;;;;;4.80;1.42;;;;;;;;;;2347550;57;21361;-76
2021/12/02 02:24:51;;;;;;;10.50;1.30;;;;;;;;;;2347491;57;21038;-76
2021/12/02 02:27:18;;;;;;;1.58;1.40;;;;;;;;;;2347575;57;21050;-76
2021/12/02 02:29:45;;;;;;;7.28;1.92;;;;;;;;;;2594780;53;21122;-76
2021/12/02 02:32:12;;;;;;;4.95;1.40;;;;;;;;;;2347242;57;21037;-75
2021/12/02 02:34:39;;;;;;;3.00;1.23;;;;;;;;;;2347834;57;21058;-76
2021/12/02 02:37:07;;;;;;;3.42;1.00;;;;;;;;;;2595123;52;21548;-76
2021/12/02 02:39:36;;;;;;;3.00;1.17;;;;;;;;;;2347115;57;21049;-77
2021/12/02 02:42:07;;;;;;;2.15;1.02;;;;;;;;;;2347351;57;21105;-75
2021/12/02 02:44:34;;;;;;;7.60;1.02;;;;;;;;;;2347767;57;21061;-76
2021/12/02 02:47:02;;;;;;;4.40;1.37;;;;;;;;;;2594974;52;21504;-76
2021/12/02 02:49:29;;;;;;;4.97;1.80;;;;;;;;;;2347063;57;21042;-76
2021/12/02 02:51:56;;;;;;;5.65;2.53;;;;;;;;;;2347127;57;21113;-76
2021/12/02 02:54:23;;;;;;;6.20;1.40;;;;;;;;;;2347412;57;21113;-76
2021/12/02 02:56:54;;;;;;;3.62;1.45;;;;;;;;;;2347315;57;21119;-76
2021/12/02 02:59:27;;;;;;;6.28;1.20;;;;;;;;;;2346178;57;21069;-76
2021/12/02 03:02:04;;;;;;;5.12;1.12;;;;;;;;;;2346616;57;21105;-76
2021/12/02 03:04:36;;;;;;;4.03;1.10;;;;;;;;;;2346537;57;21057;-76
2021/12/02 03:07:09;;;;;;;8.43;1.30;;;;;;;;;;2346742;57;21133;-76
2021/12/02 03:09:50;;;;;;;3.55;1.30;;;;;;;;;;2346535;57;21077;-77
2021/12/02 03:12:22;;;;;;;2.15;1.12;;;;;;;;;;2346444;57;21108;-76
2021/12/02 03:16:37;;;;;;;2.47;0.95;;;;;;;;;;2346106;57;21119;-75
2021/12/02 03:19:04;;;;;;;6.90;1.40;;;;;;;;;;2346161;57;21188;-75
2021/12/02 03:21:31;;;;;;;3.62;1.08;;;;;;;;;;2346185;57;21042;-76
2021/12/02 03:24:00;;;;;;;4.70;1.58;;;;;;;;;;2346455;57;21034;-76
2021/12/02 03:26:28;;;;;;;3.47;1.25;;;;;;;;;;2593973;53;21540;-76
2021/12/02 03:28:55;;;;;;;3.35;1.10;;;;;;;;;;2345939;57;21037;-76
2021/12/02 03:31:23;;;;;;;3.03;1.25;;;;;;;;;;2346308;57;21130;-76
2021/12/02 03:33:50;;;;;;;2.33;1.02;;;;;;;;;;2346399;57;21021;-76
2021/12/02 03:36:18;;;;;;;2.92;1.30;;;;;;;;;;2346419;57;21093;-76
2021/12/02 03:38:46;;;;;;;1.55;1.15;;;;;;;;;;2346081;57;22107;-75
2021/12/02 03:41:13;;;;;;;1.30;1.00;;;;;;;;;;2346562;57;21026;-76
2021/12/02 03:43:41;;;;;;;1.87;1.05;;;;;;;;;;2346791;57;21116;-75
2021/12/02 03:46:09;;;;;;;2.83;1.40;;;;;;;;;;2346151;57;21596;-76
2021/12/02 03:48:36;;;;;;;2.65;1.10;;;;;;;;;;2345662;57;21611;-75
2021/12/02 03:51:03;;;;;;;1.60;1.02;;;;;;;;;;2345765;57;21018;-76
2021/12/02 03:53:30;;;;;;;1.80;1.35;;;;;;;;;;2346155;57;21050;-75
2021/12/02 03:55:57;;;;;;;1.50;1.30;;;;;;;;;;2346969;57;21030;-75
2021/12/02 03:58:24;;;;;;;3.60;1.20;;;;;;;;;;2346202;57;21777;-75
2021/12/02 04:00:51;;;;;;;3.42;1.30;;;;;;;;;;2345811;57;21403;-75
2021/12/02 04:03:18;;;;;;;2.67;1.17;;;;;;;;;;2346475;57;21026;-75
2021/12/02 04:05:45;;;;;;;3.28;1.40;;;;;;;;;;2329860;55;21065;-75
2021/12/02 04:08:12;;;;;;;4.37;1.77;;;;;;;;;;2346147;57;21039;-77
2021/12/02 04:10:40;;;;;;;2.25;1.00;;;;;;;;;;2592721;53;21114;-77
2021/12/02 04:13:13;;;;;;;4.05;1.10;;;;;;;;;;2346245;57;21059;-79
2021/12/02 04:15:40;;;;;;;3.33;1.60;;;;;;;;;;2346623;57;21125;-78
2021/12/02 04:18:08;;;;;;;6.25;2.50;;;;;;;;;;2346335;57;21224;-77
2021/12/02 04:20:37;;;;;;;1.80;1.10;;;;;;;;;;2592462;53;21066;-78
2021/12/02 04:23:04;;;;;;;6.28;1.10;;;;;;;;;;2346277;57;21051;-77
2021/12/02 04:25:31;;;;;;;4.72;1.48;;;;;;;;;;2346408;57;21114;-77
2021/12/02 04:27:58;;;;;;;1.33;1.05;;;;;;;;;;2593599;53;21471;-78
2021/12/02 04:30:26;;;;;;;1.60;1.00;;;;;;;;;;2345698;57;22287;-77
2021/12/02 04:32:54;;;;;;;1.73;1.00;;;;;;;;;;2593123;53;21659;-77
2021/12/02 04:35:21;;;;;;;2.90;1.10;;;;;;;;;;2593252;53;21537;-77
2021/12/02 04:37:51;;;;;;;3.28;1.40;;;;;;;;;;2345966;57;21119;-78
2021/12/02 04:40:20;;;;;;;6.43;1.20;;;;;;;;;;2592855;53;21091;-77
2021/12/02 04:42:47;;;;;;;6.37;1.17;;;;;;;;;;2346275;57;21055;-77
2021/12/02 04:45:14;;;;;;;3.65;1.17;;;;;;;;;;2344861;57;21644;-78
2021/12/02 04:47:42;;;;;;;4.12;1.17;;;;;;;;;;2345789;57;21055;-76
2021/12/02 04:50:10;;;;;;;4.57;1.40;;;;;;;;;;2345623;57;21122;-77
2021/12/02 04:52:37;;;;;;;5.82;1.37;;;;;;;;;;2345898;57;21067;-77
2021/12/02 04:55:05;;;;;;;1.62;1.08;;;;;;;;;;2346170;57;21607;-77
2021/12/02 04:57:32;;;;;;;3.95;1.20;;;;;;;;;;2345740;57;21129;-78
2021/12/02 04:59:59;;;;;;;2.00;1.12;;;;;;;;;;2345171;57;21640;-77
2021/12/02 05:02:26;;;;;;;2.65;1.20;;;;;;;;;;2345609;57;21093;-77
2021/12/02 05:04:53;;;;;;;3.55;1.20;;;;;;;;;;2346077;57;21613;-76
2021/12/02 05:07:20;;;;;;;5.90;1.65;;;;;;;;;;2345609;57;21115;-77
2021/12/02 05:09:47;;;;;;;2.60;1.20;;;;;;;;;;2592757;52;21051;-77
2021/12/02 05:12:14;;;;;;;3.60;1.27;;;;;;;;;;2345777;57;21521;-76
2021/12/02 05:14:41;;;;;;;2.05;1.23;;;;;;;;;;2346139;57;21055;-77
2021/12/02 05:17:08;;;;;;;37.05;4.93;;;;;;;;;;2345856;57;21118;-78
2021/12/02 05:19:35;;;;;;;3.30;1.20;;;;;;;;;;2345448;57;21050;-77
2021/12/02 05:22:03;;;;;;;5.37;1.20;;;;;;;;;;2345576;57;21063;-78
2021/12/02 05:24:30;;;;;;;4.30;1.37;;;;;;;;;;2592562;53;21098;-76
2021/12/02 05:26:57;;;;;;;4.72;1.10;;;;;;;;;;2345577;57;21051;-78
2021/12/02 05:29:24;;;;;;;2.87;1.20;;;;;;;;;;2346182;57;21051;-76
2021/12/02 05:31:51;;;;;;;7.30;1.50;;;;;;;;;;2346151;57;21063;-77
2021/12/02 05:34:18;;;;;;;6.62;1.70;;;;;;;;;;2345973;57;21313;-77
2021/12/02 05:36:45;;;;;;;3.05;1.33;;;;;;;;;;2346301;57;21110;-76
2021/12/02 05:39:12;;;;;;;6.72;1.83;;;;;;;;;;2345702;57;21046;-78
2021/12/02 05:41:39;;;;;;;6.82;1.40;;;;;;;;;;2345794;57;21317;-78
2021/12/02 05:44:07;;;;;;;5.85;1.50;;;;;;;;;;2346134;57;21529;-77
2021/12/02 05:46:34;;;;;;;3.55;1.50;;;;;;;;;;2346173;57;21541;-77
2021/12/02 05:49:01;;;;;;;6.03;1.60;;;;;;;;;;2592964;53;21114;-77
2021/12/02 05:51:28;;;;;;;5.80;1.70;;;;;;;;;;2346320;57;21637;-77
2021/12/02 05:53:55;;;;;;;7.53;1.55;;;;;;;;;;2345954;57;21047;-78
2021/12/02 05:56:22;;;;;;;1.95;1.40;;;;;;;;;;2346380;57;21137;-77
2021/12/02 05:58:49;;;;;;;4.22;1.62;;;;;;;;;;2345719;57;21309;-77
2021/12/02 06:01:16;;;;;;;4.75;1.73;;;;;;;;;;2346107;57;22207;-77
2021/12/02 06:03:43;;;;;;;4.45;1.40;;;;;;;;;;2346195;57;21114;-77
2021/12/02 06:06:10;;;;;;;5.45;1.42;;;;;;;;;;2345394;57;21121;-76
2021/12/02 06:08:37;;;;;;;5.55;1.65;;;;;;;;;;2346555;57;21114;-77
2021/12/02 06:11:04;;;;;;;5.18;1.60;;;;;;;;;;2346191;57;21062;-77
2021/12/02 06:13:31;;;;;;;9.15;1.73;;;;;;;;;;2345749;57;21093;-77
2021/12/02 06:15:59;;;;;;;3.92;1.40;;;;;;;;;;2346911;57;21067;-77
2021/12/02 06:18:26;;;;;;;7.18;1.95;;;;;;;;;;2593237;53;21090;-78
2021/12/02 06:20:54;;;;;;;6.70;2.60;;;;;;;;;;2345159;57;21556;-78
2021/12/02 06:23:21;;;;;;;7.85;3.53;;;;;;;;;;2346219;57;21106;-76
2021/12/02 06:25:48;;;;;;;4.70;1.50;;;;;;;;;;2346365;57;21125;-77
2021/12/02 06:28:16;;;;;;;8.13;2.03;;;;;;;;;;2346334;57;21129;-77
2021/12/02 06:30:43;;;;;;;6.50;2.45;;;;;;;;;;2593047;53;21055;-77
2021/12/02 06:33:10;;;;;;;5.40;1.92;;;;;;;;;;2346578;57;21062;-77
2021/12/02 06:35:37;;;;;;;7.87;1.52;;;;;;;;;;2593808;53;21518;-77
2021/12/02 06:38:04;;;;;;;4.62;1.50;;;;;;;;;;2593594;53;21043;-77
2021/12/02 06:40:34;;;;;;;9.52;2.08;;;;;;;;;;2593714;53;21039;-77
2021/12/02 06:43:01;;;;;;;6.20;2.05;;;;;;;;;;2346701;57;21431;-77
2021/12/02 06:45:28;;;;;;;3.45;1.58;;;;;;;;;;2346608;57;21212;-77
2021/12/02 06:47:58;;;;;;;4.78;1.50;;;;;;;;;;2346589;57;21063;-77
2021/12/02 06:50:26;;;;;;;14.35;2.05;;;;;;;;;;2593570;53;21051;-78
2021/12/02 06:52:53;;;;;;;4.60;1.83;;;;;;;;;;2345533;57;21732;-77
2021/12/02 06:55:21;;;;;;;8.70;1.90;;;;;;;;;;2346212;57;21102;-77
2021/12/02 06:57:48;;;;;;;5.80;1.67;;;;;;;;;;2346535;57;21174;-78
2021/12/02 07:00:17;;;;;;;10.00;1.85;;;;;;;;;;2346340;57;21063;-76
2021/12/02 07:02:44;;;;;;;8.13;1.75;;;;;;;;;;2346272;57;21050;-77
2021/12/02 07:05:13;;;;;;;3.95;1.50;;;;;;;;;;2593846;53;21118;-77
2021/12/02 07:07:40;;;;;;;7.75;2.08;;;;;;;;;;2346233;57;21122;-76
2021/12/02 07:10:08;;;;;;;8.02;1.80;;;;;;;;;;2593356;53;21059;-77
2021/12/02 07:12:38;;;;;;;5.57;1.87;;;;;;;;;;2346348;57;21576;-77
2021/12/02 07:15:11;;;;;;;4.82;1.62;;;;;;;;;;2593976;52;21122;-76
2021/12/02 07:17:38;;;;;;;9.02;2.12;;;;;;;;;;2346782;57;21138;-76
2021/12/02 07:20:07;;;;;;;10.15;2.00;;;;;;;;;;2345929;57;21047;-76
2021/12/02 07:22:34;;;;;;;11.07;1.95;;;;;;;;;;2593563;53;21038;-78
2021/12/02 07:25:01;;;;;;;6.43;2.37;;;;;;;;;;2593338;53;21542;-78
2021/12/02 07:27:28;;;;;;;6.32;2.03;;;;;;;;;;2345914;57;21142;-78
2021/12/02 07:29:55;;;;;;;7.78;2.08;;;;;;;;;;2346080;57;21104;-78
2021/12/02 07:32:25;;;;;;;8.07;1.98;;;;;;;;;;2346103;57;21564;-78
2021/12/02 07:34:53;;;;;;;7.00;2.03;;;;;;;;;;2346801;57;21221;-78
2021/12/02 07:37:21;;;;;;;7.47;1.70;;;;;;;;;;2346030;57;21548;-78
2021/12/02 07:39:49;;;;;;;3.67;1.52;;;;;;;;;;2345919;57;21793;-78
2021/12/02 07:42:17;;;;;;;7.20;2.45;;;;;;;;;;2346596;57;21609;-78
2021/12/02 07:44:44;;;;;;;6.72;1.80;;;;;;;;;;2346610;57;21122;-79
2021/12/02 07:47:12;;;;;;;14.30;2.45;;;;;;;;;;2593208;53;21050;-78
2021/12/02 07:49:39;;;;;;;9.88;2.97;;;;;;;;;;2346021;57;21837;-78
2021/12/02 07:52:08;;;;;;;6.07;1.70;;;;;;;;;;2346608;57;21058;-78
2021/12/02 07:54:36;;;;;;;4.03;1.80;;;;;;;;;;2346291;57;21991;-78
2021/12/02 07:57:03;;;;;;;5.45;2.40;;;;;;;;;;2346300;57;21122;-78
2021/12/02 07:59:30;;;;;;;4.72;1.77;;;;;;;;;;2345923;57;21106;-76
2021/12/02 08:02:00;;;;;;;4.37;1.80;;;;;;;;;;2593210;53;21059;-76
2021/12/02 08:04:28;;;;;;;7.47;1.90;;;;;;;;;;2346333;57;21062;-76
2021/12/02 08:06:55;;;;;;;7.22;2.62;;;;;;;;;;2344512;57;21123;-75
2021/12/02 08:09:22;;;;;;;8.23;2.45;;;;;;;;;;2593027;52;21059;-76
2021/12/02 08:11:49;;;;;;;9.93;2.67;;;;;;;;;;2593473;53;21048;-76
2021/12/02 08:14:17;;;;;;;5.35;2.03;;;;;;;;;;2346501;57;21128;-76
2021/12/02 08:16:45;;;;;;;6.78;1.90;;;;;;;;;;2593715;53;21356;-75
2021/12/02 08:19:12;;;;;;;4.75;2.20;;;;;;;;;;2345910;57;21063;-76
2021/12/02 08:21:39;;;;;;;3.28;1.90;;;;;;;;;;2593744;53;21071;-76
2021/12/02 08:24:06;;;;;;;5.90;1.75;;;;;;;;;;2346224;57;21117;-76
2021/12/02 08:26:33;;;;;;;4.87;1.80;;;;;;;;;;2345979;57;22200;-75
2021/12/02 08:29:00;;;;;;;9.90;1.80;;;;;;;;;;2592735;53;21625;-76
2021/12/02 08:31:27;;;;;;;9.88;2.00;;;;;;;;;;2593200;53;21114;-76
2021/12/02 08:33:55;;;;;;;9.73;2.15;;;;;;;;;;2346569;57;22140;-76
2021/12/02 08:36:24;;;;;;;5.80;2.15;;;;;;;;;;2346246;57;21309;-76
2021/12/02 08:38:51;;;;;;;6.15;2.30;;;;;;;;;;2593112;53;21110;-76
2021/12/02 08:41:20;;;;;;;6.00;2.08;;;;;;;;;;2593483;53;21119;-76
2021/12/02 08:43:47;;;;;;;6.75;2.60;;;;;;;;;;2346079;57;21696;-76
2021/12/02 08:46:14;;;;;;;12.55;1.92;;;;;;;;;;2593124;53;21055;-75
2021/12/02 08:48:41;;;;;;;6.57;1.90;;;;;;;;;;2346056;57;21609;-76
2021/12/02 08:51:08;;;;;;;7.20;2.03;;;;;;;;;;2593781;53;21111;-75
2021/12/02 08:53:35;;;;;;;9.90;2.17;;;;;;;;;;2346444;57;21055;-76
2021/12/02 08:56:03;;;;;;;11.60;2.25;;;;;;;;;;2345918;57;21099;-76
2021/12/02 08:58:30;;;;;;;7.03;3.03;;;;;;;;;;2345815;57;21070;-76
2021/12/02 09:00:57;;;;;;;3.33;1.95;;;;;;;;;;2592610;53;21123;-76
2021/12/02 09:03:24;;;;;;;10.25;2.37;;;;;;;;;;2346518;57;21067;-76
2021/12/02 09:05:51;;;;;;;5.87;1.87;;;;;;;;;;2345959;57;21569;-76
2021/12/02 09:08:19;;;;;;;6.45;2.10;;;;;;;;;;2344813;57;21064;-77
2021/12/02 09:10:47;;;;;;;6.15;2.47;;;;;;;;;;2344251;57;21062;-76
2021/12/02 09:13:15;;;;;;;6.10;1.87;;;;;;;;;;2345821;57;21059;-76
2021/12/02 09:15:42;;;;;;;3.22;1.60;;;;;;;;;;2593217;53;21117;-76
2021/12/02 09:18:09;;;;;;;4.43;1.92;;;;;;;;;;2592897;53;21142;-76
2021/12/02 09:20:37;;;;;;;4.22;1.75;;;;;;;;;;2344896;57;21043;-76
2021/12/02 09:23:04;;;;;;;8.23;2.20;;;;;;;;;;2345437;57;21102;-76
2021/12/02 09:25:31;;;;;;;12.32;2.33;;;;;;;;;;2345389;57;21557;-76
2021/12/02 09:27:58;;;;;;;8.68;2.40;;;;;;;;;;2345732;57;21605;-76
2021/12/02 09:30:25;;;;;;;6.60;2.60;;;;;;;;;;2592667;53;21059;-77
2021/12/02 09:32:52;;;;;;;11.05;2.20;;;;;;;;;;2345734;57;21075;-77
2021/12/02 09:35:20;;;;;;;11.32;2.17;;;;;;;;;;2346058;57;21098;-76
2021/12/02 09:37:47;;;;;;;8.02;2.40;;;;;;;;;;2345716;57;21106;-76
2021/12/02 09:40:15;;;;;;;10.13;2.20;;;;;;;;;;2593020;53;21110;-76
2021/12/02 09:42:42;;;;;;;4.43;1.65;;;;;;;;;;2345687;57;21122;-76
2021/12/02 09:45:10;;;;;;;7.70;2.12;;;;;;;;;;2345700;57;21079;-76
2021/12/02 09:47:38;;;;;;;8.32;3.08;;;;;;;;;;2345886;57;21513;-76
2021/12/02 09:50:08;;;;;;;9.48;3.12;;;;;;;;;;2346003;57;21074;-76
2021/12/02 09:52:37;;;;;;;12.02;3.45;;;;;;;;;;2345058;57;21038;-76
2021/12/02 09:55:08;;;;;;;8.27;2.28;;;;;;;;;;2346034;57;21110;-75
2021/12/02 09:57:38;;;;;;;6.47;1.85;;;;;;;;;;2345985;57;21059;-77
2021/12/02 10:00:08;;;;;;;7.00;1.90;;;;;;;;;;2345797;57;21142;-75
2021/12/02 10:02:42;;;;;;;7.93;1.87;;;;;;;;;;2346199;57;21557;-75
2021/12/02 10:05:13;;;;;;;12.05;2.50;;;;;;;;;;2337167;55;21129;-77
2021/12/02 10:07:53;;;;;;;11.85;3.15;;;;;;;;;;2230939;57;21096;-75
2021/12/02 10:10:29;;;;;;;10.15;3.00;;;;;;;;;;2222184;60;21096;-75
2021/12/02 10:13:18;;;;;;;7.20;2.12;;;;;;;;;;2223514;60;21072;-75
2021/12/02 10:15:54;;;;;;;9.13;2.65;;;;;;;;;;2223862;60;21574;-75
2021/12/02 10:18:25;;;;;;;4.55;1.83;;;;;;;;;;2223643;60;21079;-75
2021/12/02 10:20:52;;;;;;;5.37;2.10;;;;;;;;;;2223217;60;21084;-75
2021/12/02 10:23:23;;;;;;;3.00;1.77;;;;;;;;;;2223495;60;21064;-74
2021/12/02 10:25:54;;;;;;;5.07;1.90;;;;;;;;;;2329210;56;21087;-74
2021/12/02 10:28:22;;;;;;;5.90;1.77;;;;;;;;;;2238566;56;21072;-75
2021/12/02 10:30:50;;;;;;;10.02;2.00;;;;;;;;;;2222845;60;21136;-75
2021/12/02 10:33:29;;;;;;;7.28;2.40;;;;;;;;;;2223592;60;21120;-76
2021/12/02 10:35:56;;;;;;;7.95;2.10;;;;;;;;;;2223828;60;21063;-75
2021/12/02 10:38:33;;;;;;;6.00;2.10;;;;;;;;;;2223610;60;21159;-74
2021/12/02 10:41:01;;;;;;;10.40;2.17;;;;;;;;;;2223555;60;21064;-75
2021/12/02 10:43:28;;;;;;;7.12;2.78;;;;;;;;;;2223128;60;21080;-75
2021/12/02 10:46:12;;;;;;;8.15;1.83;;;;;;;;;;2223689;60;21072;-76
2021/12/02 10:48:46;;;;;;;7.37;2.75;;;;;;;;;;2223409;60;21072;-76
2021/12/02 10:51:33;;;;;;;8.57;2.85;;;;;;;;;;2223783;60;21060;-75
2021/12/02 10:54:00;;;;;;;5.90;2.28;;;;;;;;;;2223071;60;21083;-75
2021/12/02 10:56:31;;;;;;;6.18;2.42;;;;;;;;;;2223510;60;21136;-75
2021/12/02 10:58:58;;;;;;;9.55;2.55;;;;;;;;;;2224083;56;21072;-74
2021/12/02 11:01:38;;;;;;;7.47;2.15;;;;;;;;;;2223567;60;21088;-75
2021/12/02 11:04:06;;;;;;;6.30;2.00;;;;;;;;;;2223391;60;21084;-75
2021/12/02 11:06:43;;;;;;;5.37;2.00;;;;;;;;;;2301739;56;21203;-75
2021/12/02 11:09:24;;;;;;;11.52;2.60;;;;;;;;;;2223348;60;21147;-75
2021/12/02 11:12:06;;;;;;;4.12;1.85;;;;;;;;;;2223337;60;21147;-76
2021/12/02 11:14:33;;;;;;;8.60;2.53;;;;;;;;;;2223600;60;21661;-73
2021/12/02 11:17:06;;;;;;;6.75;2.05;;;;;;;;;;2223488;60;21120;-75
2021/12/02 11:19:34;;;;;;;6.25;2.20;;;;;;;;;;2223391;60;21398;-74
2021/12/02 11:22:04;;;;;;;10.25;2.22;;;;;;;;;;2344735;56;21052;-75
2021/12/02 11:24:32;;;;;;;14.00;2.33;;;;;;;;;;2223712;60;21618;-75
2021/12/02 11:27:07;;;;;;;8.15;2.10;;;;;;;;;;2223240;60;21147;-75
2021/12/02 11:29:46;;;;;;;5.90;1.67;;;;;;;;;;2223443;60;21056;-75
2021/12/02 11:32:23;;;;;;;6.40;2.28;;;;;;;;;;2413540;56;21064;-74
2021/12/02 11:34:58;;;;;;;10.20;2.08;;;;;;;;;;2223464;60;21072;-75
2021/12/02 11:37:26;;;;;;;8.68;2.08;;;;;;;;;;2223212;60;21088;-76
2021/12/02 11:39:53;;;;;;;6.40;1.80;;;;;;;;;;2223041;60;21087;-73
2021/12/02 11:42:21;;;;;;;13.18;2.37;;;;;;;;;;2236482;56;21084;-75
2021/12/02 11:44:49;;;;;;;5.25;2.10;;;;;;;;;;2223372;60;21064;-74
2021/12/02 11:47:17;;;;;;;5.85;1.90;;;;;;;;;;2223481;60;21072;-75
2021/12/02 11:49:44;;;;;;;8.13;1.85;;;;;;;;;;2223018;60;21072;-75
2021/12/02 11:52:11;;;;;;;8.48;2.87;;;;;;;;;;2345834;56;21052;-75
2021/12/02 11:54:38;;;;;;;3.95;2.00;;;;;;;;;;2223720;60;21674;-75
2021/12/02 11:57:06;;;;;;;8.27;3.12;;;;;;;;;;2223556;60;21101;-75
2021/12/02 11:59:33;;;;;;;12.30;2.35;;;;;;;;;;2223094;60;21080;-75
2021/12/02 12:02:00;;;;;;;4.47;1.90;;;;;;;;;;2223501;60;21080;-75
2021/12/02 12:04:27;;;;;;;12.68;2.35;;;;;;;;;;2223694;60;21143;-75
2021/12/02 12:06:56;;;;;;;8.23;1.75;;;;;;;;;;2223355;60;21117;-73
2021/12/02 12:09:25;;;;;;;5.20;1.90;;;;;;;;;;2289564;56;21091;-74
2021/12/02 12:11:56;;;;;;;5.22;1.90;;;;;;;;;;2223076;60;21638;-76
2021/12/02 12:14:33;;;;;;;6.05;2.83;;;;;;;;;;2223371;60;21071;-75
2021/12/02 12:17:05;;;;;;;4.68;2.00;;;;;;;;;;2241601;56;21710;-75
2021/12/02 12:19:33;;;;;;;8.15;2.25;;;;;;;;;;2223254;60;21076;-75
2021/12/02 12:22:01;;;;;;;9.70;2.35;;;;;;;;;;2223030;60;21080;-75
2021/12/02 12:24:42;;;;;;;9.63;2.25;;;;;;;;;;2223372;60;21095;-76
2021/12/02 12:27:13;;;;;;;9.40;2.10;;;;;;;;;;2223757;60;21143;-76
2021/12/02 12:29:43;;;;;;;5.20;2.10;;;;;;;;;;2222163;56;21156;-74
2021/12/02 12:32:15;;;;;;;7.85;1.95;;;;;;;;;;2221437;60;21522;-75
2021/12/02 12:34:47;;;;;;;11.43;2.05;;;;;;;;;;2241681;56;21429;-75
2021/12/02 12:37:58;;;;;;;5.50;1.83;;;;;;;;;;2222194;60;21170;-75
2021/12/02 12:40:48;;;;;;;6.37;2.05;;;;;;;;;;2184985;61;21093;-75
2021/12/02 12:46:27;;;;;;;7.47;2.30;;;;;;;;;;2321451;57;22687;-79
2021/12/02 12:48:55;;;;;;;3.85;2.37;;;;;;;;;;2318423;58;21996;-79
2021/12/02 12:51:30;;;;;;;4.82;1.73;;;;;;;;;;2318552;58;21558;-79
2021/12/02 12:53:58;;;;;;;12.45;2.40;;;;;;;;;;2347552;54;21633;-77
2021/12/02 12:56:29;;;;;;;6.07;1.80;;;;;;;;;;2318898;58;21531;-77
2021/12/02 12:58:58;;;;;;;5.70;2.45;;;;;;;;;;2319086;58;21048;-78
2021/12/02 13:01:26;;;;;;;11.70;2.97;;;;;;;;;;2319610;56;21044;-77
2021/12/02 13:04:14;;;;;;;17.05;5.65;;;;;;;;;;2320036;56;21057;-77
2021/12/02 13:06:53;;;;;;;16.25;4.57;;;;;;;;;;2320244;58;21160;-78
2021/12/02 13:09:36;;;;;;;13.50;3.00;;;;;;;;;;2376543;54;21036;-78
2021/12/02 13:12:04;;;;;;;12.60;3.85;;;;;;;;;;2320130;58;21153;-77
2021/12/02 13:14:31;;;;;;;8.85;2.35;;;;;;;;;;2318946;58;21049;-76
2021/12/02 13:16:58;;;;;;;9.13;2.58;;;;;;;;;;2319065;58;21119;-76
2021/12/02 13:19:26;;;;;;;7.53;2.42;;;;;;;;;;2318083;58;21622;-76
2021/12/02 13:21:57;;;;;;;5.25;2.20;;;;;;;;;;2560708;54;21330;-77
2021/12/02 13:24:33;;;;;;;8.98;2.00;;;;;;;;;;2319237;58;21056;-76
2021/12/02 13:27:01;;;;;;;7.10;2.10;;;;;;;;;;2318711;58;21116;-76
2021/12/02 13:29:30;;;;;;;5.22;1.95;;;;;;;;;;2318703;58;21567;-77
2021/12/02 13:31:58;;;;;;;5.57;2.00;;;;;;;;;;2318972;58;21602;-76
2021/12/02 13:34:25;;;;;;;9.02;2.12;;;;;;;;;;2319175;58;21545;-77
2021/12/02 13:36:55;;;;;;;4.37;1.70;;;;;;;;;;2323275;54;21099;-77
2021/12/02 13:39:24;;;;;;;8.23;2.03;;;;;;;;;;2319550;58;21338;-78
2021/12/02 13:41:55;;;;;;;6.85;2.25;;;;;;;;;;2319662;58;21111;-78
2021/12/02 13:44:24;;;;;;;8.10;2.95;;;;;;;;;;2319147;58;21131;-77
2021/12/02 13:46:53;;;;;;;4.40;1.87;;;;;;;;;;2319441;58;21172;-77
2021/12/02 13:49:21;;;;;;;5.40;2.53;;;;;;;;;;2324810;54;21538;-77
2021/12/02 13:54:35;;;;;;;9.02;1.98;;;;;;;;;;2318872;54;21087;-77
2021/12/02 13:57:21;;;;;;;8.82;2.10;;;;;;;;;;2388209;54;21539;-78
2021/12/02 13:59:49;;;;;;;6.72;2.00;;;;;;;;;;2318181;58;21107;-77
2021/12/02 14:02:20;;;;;;;5.70;1.85;;;;;;;;;;2317537;58;21056;-77
2021/12/02 14:04:48;;;;;;;17.90;4.07;;;;;;;;;;2318154;58;21121;-78
2021/12/02 14:07:17;;;;;;;4.40;1.65;;;;;;;;;;2318137;58;21522;-78
2021/12/02 14:09:46;;;;;;;8.38;2.35;;;;;;;;;;2358386;54;21060;-77
2021/12/02 14:12:14;;;;;;;9.02;1.62;;;;;;;;;;2329120;54;21542;-77
2021/12/02 14:14:55;;;;;;;6.50;1.98;;;;;;;;;;2318189;58;21053;-78
2021/12/02 14:17:21;;;;;;;10.90;3.03;;;;;;;;;;2325011;54;21108;-78
2021/12/02 14:19:59;;;;;;;11.23;2.53;;;;;;;;;;2317522;58;21661;-77
2021/12/02 14:22:26;;;;;;;5.22;2.50;;;;;;;;;;2317659;58;21035;-76
2021/12/02 14:24:53;;;;;;;8.07;2.55;;;;;;;;;;2317873;58;21140;-76
2021/12/02 14:27:20;;;;;;;10.05;3.45;;;;;;;;;;2318343;58;21567;-77
2021/12/02 14:29:47;;;;;;;8.75;3.60;;;;;;;;;;2316701;58;21539;-77
2021/12/02 14:32:15;;;;;;;13.38;8.38;;;;;;;;;;2317921;58;21111;-77
2021/12/02 14:34:42;;;;;;;12.90;6.90;;;;;;;;;;2318537;58;21103;-77
2021/12/02 14:37:14;;;;;;;23.20;12.18;;;;;;;;;;2317966;58;21535;-77
2021/12/02 14:39:41;;;;;;;37.17;27.20;;;;;;;;;;2318798;58;21139;-78
2021/12/02 14:42:09;;;;;;;18.70;12.00;;;;;;;;;;2347300;54;21610;-77
2021/12/02 14:44:36;;;;;;;12.93;3.92;;;;;;;;;;2318269;58;21423;-78
2021/12/02 14:47:08;;;;;;;10.45;3.17;;;;;;;;;;2317852;58;21625;-79
2021/12/02 14:49:36;;;;;;;3.30;2.08;;;;;;;;;;2340007;54;21045;-78
2021/12/02 14:52:06;;;;;;;5.87;1.98;;;;;;;;;;2401475;54;21293;-79
2021/12/02 14:54:35;;;;;;;3.70;1.75;;;;;;;;;;2349848;54;21047;-80
2021/12/02 14:57:03;;;;;;;7.12;1.80;;;;;;;;;;2318441;58;21048;-80
2021/12/02 14:59:30;;;;;;;27.58;9.60;;;;;;;;;;2318592;58;21080;-80
2021/12/02 15:02:08;;;;;;;17.58;5.57;;;;;;;;;;2363591;54;21574;-80